Weather observations for the past three days for
Omaha, Millard Airport
Imperial (Metric)
Date Time (cdt) Wind (mph) Vis. (mi.) Weather Sky Cond. Temperature (ºF) Relative Humidity Wind Chill (°F) Heat Index (°F) Pressure Precipitation (in)
Air Dwpt 6 hour altimeter (in) sea level (mb) 1 hr 3 hr 6 hr
Max. Min.
03 23:15 Calm 10.00 Fair CLR 56.1 43.7 63% 29.74 0.0
03 22:55 Calm 10.00 Fair CLR 57.7 44.8 62% 29.75 0.0
03 22:35 Calm 10.00 Fair CLR 58.6 42.4 55% 29.76 0.0
03 22:15 Calm 10.00 Fair CLR 59.7 44.1 56% 29.76 0.0
03 21:55 Calm 10.00 Fair CLR 59.9 42.1 52% 29.76 0.0
03 21:35 Calm 10.00 Fair CLR 60.8 41.9 50% 29.76 0.0
03 21:15 Calm 10.00 Fair CLR 61.9 41.7 48% 29.77 0.0
03 20:55 Calm 10.00 Fair CLR 63.5 40.8 44% 29.77 0.0
03 20:35 Calm 10.00 Fair CLR 65.5 40.5 40% 29.77 0.0
03 20:15 S 3 10.00 Fair CLR 70.7 37.2 29% 29.77 0.0
03 19:55 Calm 10.00 Fair CLR 71.1 37.4 29% 29.78 0.0
03 19:35 SW 5 10.00 Fair CLR 71.6 37.8 29% 29.78 0.0
03 19:15 W 7 10.00 Fair CLR 72.3 37.4 28% 29.78 0.0
03 18:55 Calm 10.00 Fair CLR 72.5 37.4 74.3 69.6 28% 29.79 0.0
03 18:35 Calm 10.00 Fair CLR 73.6 37.8 27% 29.79 0.0
03 18:15 W 5 10.00 Fair CLR 73.2 38.1 28% 29.79 0.0
03 17:55 W 6 10.00 Fair CLR 73.2 37.6 27% 29.8 0.0
03 17:35 NW 9 10.00 Fair CLR 73.2 39 29% 29.79 0.0
03 17:15 W 7 10.00 Fair CLR 73.9 38.3 28% 29.8 0.0
03 16:55 W 6 10.00 Fair CLR 73.6 38.3 28% 29.8 0.0
03 16:35 NW 8 10.00 Fair CLR 73.6 37.8 27% 29.81 0.0
03 16:15 W 8 10.00 Fair CLR 73.6 37.9 27% 29.82 0.0
03 15:55 E 3 10.00 Fair CLR 73 37.8 28% 29.83 0.0
03 15:35 NW 10 10.00 Fair CLR 72.9 38.3 29% 29.84 0.0
03 15:15 N 9 10.00 Fair CLR 72.7 36 26% 29.84 0.0
03 14:55 NE 6 10.00 Fair CLR 71.6 36.5 28% 29.85 0.0
03 14:35 N 9 10.00 Fair CLR 72 37.8 29% 29.85 0.0
03 14:15 N 8 10.00 Fair CLR 71.2 36.7 28% 29.86 0.0
03 13:55 NW 10 10.00 Fair CLR 71.6 37 28% 29.86 0.0
03 13:35 N 6 10.00 Fair CLR 71.1 35.6 27% 29.86 0.0
03 13:15 NW 7 G 17 10.00 Fair CLR 70.5 36.5 29% 29.87 0.0
03 12:55 N 9 10.00 Fair CLR 69.8 35.4 70.5 52.2 28% 29.88 0.0
03 12:35 N 8 10.00 Fair CLR 70 36 29% 29.88 0.0
03 12:15 N 8 10.00 Fair CLR 70 37.6 31% 29.89 0.0
03 11:55 NW 6 10.00 Fair CLR 68.7 40.1 35% 29.89 0.0
03 11:35 N 3 10.00 Fair CLR 66.9 40.5 38% 29.89 0.0
03 11:15 NW 6 10.00 Fair CLR 64.9 39.4 39% 29.9 0.0
03 10:55 NW 8 10.00 Fair CLR 64.8 40.3 41% 29.9 0.0
03 10:35 NW 8 10.00 Fair CLR 63.3 39.9 42% 29.9 0.0
03 10:15 NW 8 10.00 Fair CLR 62.6 39.4 43% 29.89 0.0
03 09:55 NW 6 10.00 Fair CLR 61.3 38.7 43% 29.88 0.0
03 09:35 NW 7 10.00 Fair CLR 60.3 38.3 44% 29.88 0.0
03 09:15 W 7 10.00 Fair CLR 59 37.8 45% 29.88 0.0
03 08:55 W 5 10.00 Fair CLR 58.1 37.2 46% 29.87 0.0
03 08:35 W 7 10.00 Fair CLR 57.2 36.7 46% 29.86 0.0
03 08:15 W 3 10.00 Fair CLR 56.7 35.6 45% 29.86 0.0
03 07:55 W 10 10.00 Fair CLR 56.1 35.2 46% 29.87 0.0
03 07:35 W 7 10.00 Partly Cloudy SCT085 SCT120 55.6 34.9 46% 29.86 0.0
03 07:15 SW 7 10.00 Partly Cloudy SCT120 53.6 34.7 49% 29.86 0.0
03 06:55 Calm 10.00 Fair CLR 52.2 33.8 58.1 49.6 50% 29.86 0.0
03 06:35 Calm 10.00 Fair CLR 52 33.3 49% 29.86 0.0
03 06:15 Calm 10.00 Fair CLR 53.1 32.5 46% 29.86 0.0
03 05:35 W 9 10.00 Fair CLR 55 32.2 42% 29.86 0.0
03 05:15 W 9 10.00 Fair CLR 56.3 32 40% 29.86 0.0
03 04:55 SW 8 G 16 10.00 Fair CLR 58.1 31.8 37% 29.83 0.0
03 04:35 SW 8 G 16 10.00 Fair CLR 58.1 31.8 37% 29.84 0.0
03 04:15 SW 5 10.00 Fair CLR 57.6 31.8 38% 29.84 0.0
03 03:55 S 3 10.00 Fair CLR 56.5 31.6 39% 29.85 0.0
03 03:35 S 8 10.00 Fair CLR 56.3 31.3 39% 29.85 0.0
03 03:15 S 5 10.00 Fair CLR 55.6 31.1 39% 29.86 0.0
03 02:55 S 6 10.00 Fair CLR 55.4 30.9 39% 29.86 0.0
03 02:35 SW 5 10.00 Fair CLR 55.8 31.1 39% 29.87 0.0
03 02:15 S 3 10.00 Fair CLR 56.1 31.1 39% 29.87 0.0
03 01:55 S 6 10.00 Fair CLR 56.3 30.9 38% 29.87 0.0
03 01:35 S 7 10.00 Fair CLR 56.5 30.7 38% 29.88 0.0
03 01:15 S 7 10.00 Fair CLR 56.7 30.6 37% 29.89 0.0
03 00:55 S 6 10.00 Fair CLR 57.4 30.2 67.1 56.3 36% 29.9 0.0
03 00:35 S 7 10.00 Fair CLR 57.7 29.7 34% 29.9 0.0
03 00:15 SW 6 10.00 Fair CLR 57.7 30 35% 29.9 0.0
02 23:55 S 6 10.00 Fair CLR 57.4 30.4 36% 29.91 0.0
02 23:35 S 6 10.00 Fair CLR 57.2 30.7 37% 29.91 0.0
02 23:15 S 5 10.00 Fair CLR 56.5 31.1 38% 29.92 0.0
02 22:55 S 6 10.00 Fair CLR 57.2 30.7 37% 29.93 0.0
02 22:35 S 8 10.00 Fair CLR 58.3 30.4 35% 29.93 0.0
02 22:15 S 9 10.00 Fair CLR 59 29.8 33% 29.94 0.0
02 21:55 S 8 10.00 Fair CLR 59.2 30.2 33% 29.95 0.0
02 21:35 S 6 10.00 Fair CLR 59.9 30 32% 29.95 0.0
02 21:15 S 3 10.00 Fair CLR 59 31.1 35% 29.96 0.0
02 20:55 S 3 10.00 Fair CLR 61.5 29.5 30% 29.96 0.0
02 20:35 SE 3 10.00 Fair CLR 62.8 28.8 28% 29.96 0.0
02 20:15 S 3 10.00 Fair CLR 65.1 27.3 24% 29.96 0.0
02 19:55 Calm 10.00 Fair CLR 66 27.3 23% 29.96 0.0
02 19:35 SW 6 10.00 Fair CLR 66.4 27.5 23% 29.97 0.0
02 19:15 SW 5 10.00 Fair CLR 67.1 27.9 23% 29.97 0.0
02 18:55 S 6 10.00 Fair CLR 67.3 27.1 67.3 59.4 22% 29.98 0.0
02 18:35 SW 7 10.00 Fair CLR 67.3 27.3 22% 29.99 0.0
02 18:15 SW 9 10.00 Fair CLR 67.3 27.3 22% 30 0.0
02 17:55 SW 7 10.00 Fair CLR 67.1 28.4 23% 30 0.0
02 17:35 W 6 G 9 10.00 Fair CLR 66.7 27.9 23% 30.01 0.0
02 17:15 SW 6 10.00 Fair CLR 66.7 29.7 25% 30.02 0.0
02 16:55 W 7 10.00 Fair CLR 66 27.7 24% 30.03 0.0
02 16:35 SW 8 10.00 Fair CLR 65.3 28.4 25% 30.03 0.0
02 16:15 SW 6 10.00 Fair CLR 64.9 28.6 25% 30.04 0.0
02 15:55 W 8 10.00 Fair CLR 64.9 29.5 26% 30.06 0.0
02 15:35 W 10 10.00 Fair CLR 64.8 29.5 27% 30.07 0.0
02 15:15 SW 6 10.00 Fair CLR 63.5 28.2 26% 30.08 0.0
02 14:55 Calm 10.00 Fair CLR 62.8 28.9 28% 30.08 0.0
02 14:35 E 3 10.00 Fair CLR 62.1 28.8 28% 30.1 0.0
02 14:15 NW 3 10.00 Fair CLR 61.7 29.8 30% 30.1 0.0
02 13:55 SW 6 10.00 Fair CLR 61.5 30.6 31% 30.11 0.0
02 13:35 NW 5 10.00 Fair CLR 60.3 30 32% 30.13 0.0
02 13:15 Calm 10.00 Fair CLR 59.7 28.9 31% 30.13 0.0
02 12:55 NW 7 10.00 Fair CLR 59.2 30.4 59.2 33.4 34% 30.14 0.0
02 12:35 W 9 10.00 Fair CLR 59.2 30.4 34% 30.15 0.0
02 12:15 NW 5 10.00 Fair CLR 57.2 28.9 34% 30.15 0.0
02 11:55 Calm 10.00 Fair CLR 56.1 27.7 34% 30.16 0.0
02 11:35 N 3 10.00 Fair CLR 55.8 27.5 34% 30.16 0.0
02 11:15 W 6 10.00 Fair CLR 55.9 29.3 36% 30.17 0.0
02 10:55 NW 8 10.00 Fair CLR 54.9 28.4 36% 30.18 0.0
02 10:35 W 5 10.00 Fair CLR 54.7 30.6 40% 30.18 0.0
02 10:15 W 6 10.00 Fair CLR 52.7 30 42% 30.18 0.0
02 09:55 W 5 10.00 Fair CLR 51.4 30.4 45% 30.18 0.0
02 09:35 Calm 10.00 Fair CLR 50 31.5 49% 30.18 0.0
02 09:15 Calm 10.00 Fair CLR 48.4 33.8 57% 30.18 0.0
02 08:55 Calm 10.00 Fair CLR 45.5 33.6 63% 30.19 0.0
02 08:35 Calm 10.00 Fair CLR 43.7 33.4 67% 30.19 0.0
02 08:15 Calm 10.00 Fair CLR 41.4 33.1 72% 30.18 0.0
02 07:55 Calm 10.00 Fair CLR 39 32 76% 30.18 0.0
02 07:35 Calm 10.00 Fair CLR 36.9 30.4 77% 30.18 0.0
02 07:15 Calm 10.00 Fair CLR 34.2 31.8 91% 30.18 0.0
02 06:55 Calm 10.00 Fair CLR 33.1 31.3 39.4 32.4 93% 30.18 0.0
02 06:35 Calm 10.00 Fair CLR 33.1 30.9 92% 30.17 0.0
02 06:15 Calm 10.00 Fair CLR 33.1 29.3 86% 30.17 0.0
02 05:55 Calm 10.00 Fair CLR 33.3 30 88% 30.17 0.0
02 05:35 Calm 10.00 Fair CLR 34.3 30.6 86% 30.17 0.0
02 05:15 Calm 10.00 Fair CLR 34.2 31.1 89% 30.16 0.0
02 04:55 Calm 10.00 Fair CLR 35.2 30.6 83% 30.16 0.0
02 04:35 Calm 10.00 Fair CLR 34.5 30.4 85% 30.16 0.0
02 04:15 Calm 10.00 Fair CLR 35.4 32 87% 30.16 0.0
02 03:55 Calm 10.00 Fair CLR 35.2 31.5 86% 30.16 0.0
02 03:35 Calm 10.00 Fair CLR 36.5 32.4 85% 30.16 0.0
02 03:15 Calm 10.00 Fair CLR 36.5 31.1 81% 30.15 0.0
02 02:55 Calm 10.00 Fair CLR 36.9 32.4 84% 30.16 0.0
02 02:15 Calm 10.00 Fair CLR 37.4 32 81% 30.16 0.0
02 01:55 Calm 10.00 Fair CLR 38.5 31.6 76% 30.16 0.0
02 01:35 Calm 10.00 Fair CLR 38.7 30.4 72% 30.16 0.0
02 01:15 Calm 10.00 Fair CLR 39.2 30.9 72% 30.16 0.0
02 00:55 Calm 10.00 Fair CLR 39.6 30.7 55.6 39.6 71% 30.15 0.0
02 00:35 Calm 10.00 Fair CLR 40.3 31.3 70% 30.15 0.0
02 00:15 Calm 10.00 Fair CLR 40.6 31.1 69% 30.15 0.0
01 23:55 Calm 10.00 Fair CLR 41.9 30.6 64% 30.15 0.0
01 23:35 Calm 10.00 Fair CLR 41.9 29.3 61% 30.14 0.0
01 23:15 Calm 10.00 Fair CLR 43.7 30.4 60% 30.14 0.0
01 22:55 Calm 10.00 Fair CLR 44.6 30 57% 30.14 0.0
01 22:35 Calm 10.00 Fair CLR 45.7 29.1 52% 30.14 0.0
01 22:15 Calm 10.00 Fair CLR 46.9 26.6 45% 30.14 0.0
01 21:55 Calm 10.00 Fair CLR 48.2 26.6 43% 30.13 0.0
01 21:35 Calm 10.00 Fair CLR 49.8 25 38% 30.13 0.0
01 21:15 Calm 10.00 Fair CLR 50.9 24.1 35% 30.12 0.0
01 20:55 Calm 10.00 Fair CLR 51.8 24.3 34% 30.11 0.0
01 20:35 N 3 10.00 Fair CLR 52.7 23.7 32% 30.1 0.0
01 20:15 N 6 10.00 Fair CLR 53.1 23.5 32% 30.1 0.0
01 19:55 N 7 10.00 Fair CLR 54 23 30% 30.09 0.0
01 19:35 N 7 10.00 Fair CLR 54.7 23.9 30% 30.08 0.0
01 19:15 NW 12 10.00 Fair CLR 55.2 23.4 29% 30.08 0.0
01 18:55 N 9 G 16 10.00 Fair CLR 55.6 23.4 57.7 54.5 29% 30.08 0.0
01 18:35 NW 8 G 12 10.00 Fair CLR 55.8 22.8 28% 30.08 0.0
01 18:15 N 7 10.00 Fair CLR 56.7 24.8 29% 30.08 0.0
01 17:55 NW 16 10.00 Fair CLR 56.7 23.5 28% 30.08 0.0
01 17:35 NW 16 G 23 10.00 Fair CLR 57 23.4 27% 30.08 0.0
01 17:15 NW 16 G 21 10.00 Partly Cloudy SCT080 57.6 23.7 27% 30.08 0.0
01 16:55 NW 15 G 21 10.00 Partly Cloudy SCT080 57.7 24.6 28% 30.07 0.0
01 16:35 N 10 G 16 10.00 Fair CLR 56.7 23 27% 30.08 0.0
01 16:15 NW 12 G 20 10.00 Fair CLR 56.5 24.3 29% 30.08 0.0
01 15:55 NW 13 G 21 10.00 Partly Cloudy SCT070 57.2 25.5 30% 30.08 0.0
01 15:35 NW 10 G 21 10.00 Partly Cloudy SCT070 57.2 26.8 31% 30.09 0.0
01 15:15 N 8 10.00 Fair CLR 57 27.7 33% 30.09 0.0
01 14:55 N 7 G 20 10.00 Partly Cloudy SCT060 56.5 28.9 35% 30.09 0.0
01 14:35 N 8 G 20 10.00 Partly Cloudy SCT060 56.5 29.1 35% 30.09 0.0
01 14:15 N 9 G 16 10.00 Partly Cloudy SCT060 55.9 30.7 38% 30.09 0.0
01 13:55 NW 14 G 23 10.00 Partly Cloudy SCT060 55.4 30.7 39% 30.09 0.0
01 13:35 NW 12 G 16 10.00 Partly Cloudy SCT050 55.6 31.1 39% 30.09 0.0
01 13:15 W 10 G 17 10.00 Partly Cloudy SCT050 56.1 32.2 40% 30.09 0.0
01 12:55 NW 10 G 20 10.00 Partly Cloudy SCT050 54.9 32.2 55.4 42.4 42% 30.1 0.0
01 12:35 N 8 G 18 10.00 Partly Cloudy SCT050 54.3 32.7 44% 30.1 0.0
01 12:15 NW 10 G 18 10.00 Partly Cloudy SCT043 SCT050 53.8 32.9 45% 30.1 0.0
01 11:55 NW 15 G 21 10.00 Partly Cloudy SCT043 53.6 34.2 48% 30.1 0.0
01 11:35 N 10 G 20 10.00 Partly Cloudy SCT037 52.2 34.2 50% 30.1 0.0
01 11:15 NW 10 G 16 10.00 Partly Cloudy SCT037 51.8 35.4 54% 30.1 0.0
01 10:55 NW 9 G 17 10.00 Fair CLR 51.3 35.6 55% 30.1 0.0
01 10:35 N 12 G 18 10.00 Fair CLR 50.4 36.1 58% 30.1 0.0
01 10:15 NW 12 G 17 10.00 Fair CLR 49.3 34.9 58% 45 30.1 0.0
01 09:55 N 9 10.00 Fair CLR 48.6 34 57% 45 30.09 0.0
01 09:15 NW 9 10.00 Fair CLR 47.1 34.2 61% 43 30.09 0.0
01 08:55 NW 6 10.00 Fair CLR 46.6 33.1 59% 44 30.09 0.0
01 08:35 NW 6 10.00 Fair CLR 46 33.3 61% 44 30.09 0.0
01 08:15 NW 8 10.00 Fair CLR 45.3 32.5 61% 42 30.09 0.0
01 07:55 NW 7 10.00 Fair CLR 44.6 32.2 62% 41 30.08 0.0
01 07:35 NW 8 10.00 Fair CLR 43.3 33.4 68% 39 30.08 0.0
01 07:15 NW 5 10.00 Fair CLR 42.4 32.5 68% 40 30.08 0.0
01 06:55 NW 3 10.00 Fair CLR 41.9 32 41.9 36.7 68% 30.07 0.0
01 06:35 W 6 10.00 Partly Cloudy SCT085 40.6 31.8 71% 37 30.07 0.0
01 06:15 NW 5 10.00 Mostly Cloudy BKN085 39.7 31.6 73% 37 30.08 0.0
01 05:55 NW 3 10.00 Partly Cloudy SCT085 41 30.9 67% 30.07 0.0
01 05:35 W 3 10.00 Partly Cloudy SCT085 41.2 31.1 67% 30.07 0.0
01 05:15 NW 5 10.00 Mostly Cloudy BKN095 40.8 31.8 70% 38 30.07 0.0
01 04:55 NW 6 10.00 Overcast OVC095 41 31.8 70% 38 30.06 0.0
01 04:35 W 3 10.00 Overcast OVC095 39.6 32.2 75% 30.07 0.0
01 04:15 Calm 10.00 Overcast OVC095 37.8 32.7 82% 30.06 0.0
01 03:55 Calm 10.00 Mostly Cloudy BKN095 37.2 33.4 86% 30.07 0.0
01 03:35 Calm 10.00 Partly Cloudy SCT095 36.7 33.8 89% 30.07 0.0
01 03:15 Calm 10.00 Fair CLR 37 33.3 86% 30.07 0.0
01 02:55 Calm 10.00 Fair CLR 37.8 33.1 83% 30.08 0.0
01 02:35 Calm 10.00 Fair CLR 37.9 34.3 87% 30.08 0.0
01 02:15 Calm 10.00 Fair CLR 38.7 33.4 82% 30.08 0.0
01 01:55 Calm 10.00 Partly Cloudy SCT085 38.5 35.1 88% 30.09 0.0
01 01:35 Calm 10.00 Partly Cloudy SCT085 38.8 34 83% 30.1 0.0
01 01:15 Calm 10.00 Mostly Cloudy SCT085 BKN100 39.2 33.3 79% 30.1 0.0
01 00:55 Calm 10.00 Partly Cloudy SCT100 39.2 33.3 54.5 38.5 79% 30.1 0.0
01 00:35 Calm 10.00 Partly Cloudy SCT120 38.7 34 83% 30.1 0.0
30 23:55 Calm 10.00 Fair CLR 39.9 32.5 75% 30.1 0.0
30 23:35 Calm 10.00 Fair CLR 40.5 32.4 73% 30.1 0.0
Date Time (cdt) Wind (mph) Vis. (mi.) Weather Sky Cond. Air Dwpt Max. Min. Relative Humidity Wind Chill (°F) Heat Index (°F) altimeter (in) sea level (mb) 1 hr 3 hr 6 hr
6 hour
Temperature (ºF) Pressure Precipitation (in)